sensor_id;sensor_type;location;lat;lon;timestamp;P1;durP1;ratioP1;P2;durP2;ratioP2
5416;SDS011;2731;50.754;12.990;2024-01-30T00:00:20;18.75;;;7.00;;
5416;SDS011;2731;50.754;12.990;2024-01-30T00:03:05;17.05;;;7.82;;
5416;SDS011;2731;50.754;12.990;2024-01-30T00:05:50;14.95;;;8.10;;
5416;SDS011;2731;50.754;12.990;2024-01-30T00:08:34;15.15;;;7.57;;
5416;SDS011;2731;50.754;12.990;2024-01-30T00:11:01;13.88;;;6.15;;
5416;SDS011;2731;50.754;12.990;2024-01-30T00:13:28;14.57;;;6.72;;
5416;SDS011;2731;50.754;12.990;2024-01-30T00:15:55;17.05;;;6.75;;
5416;SDS011;2731;50.754;12.990;2024-01-30T00:18:21;15.52;;;7.20;;
5416;SDS011;2731;50.754;12.990;2024-01-30T00:20:47;15.05;;;7.65;;
5416;SDS011;2731;50.754;12.990;2024-01-30T00:23:13;14.55;;;7.57;;
5416;SDS011;2731;50.754;12.990;2024-01-30T00:25:40;12.50;;;6.93;;
5416;SDS011;2731;50.754;12.990;2024-01-30T00:28:06;14.48;;;7.22;;
5416;SDS011;2731;50.754;12.990;2024-01-30T00:30:32;15.60;;;7.45;;
5416;SDS011;2731;50.754;12.990;2024-01-30T00:32:58;17.80;;;9.15;;
5416;SDS011;2731;50.754;12.990;2024-01-30T00:35:24;23.45;;;7.57;;
5416;SDS011;2731;50.754;12.990;2024-01-30T00:37:50;13.73;;;7.05;;
5416;SDS011;2731;50.754;12.990;2024-01-30T00:40:18;13.00;;;7.78;;
5416;SDS011;2731;50.754;12.990;2024-01-30T00:42:46;13.75;;;7.68;;
5416;SDS011;2731;50.754;12.990;2024-01-30T00:45:15;20.83;;;7.72;;
5416;SDS011;2731;50.754;12.990;2024-01-30T00:47:55;13.95;;;7.75;;
5416;SDS011;2731;50.754;12.990;2024-01-30T00:50:21;13.57;;;7.45;;
5416;SDS011;2731;50.754;12.990;2024-01-30T00:52:47;14.48;;;7.93;;
5416;SDS011;2731;50.754;12.990;2024-01-30T00:55:13;13.68;;;6.95;;
5416;SDS011;2731;50.754;12.990;2024-01-30T00:57:39;16.13;;;8.38;;
5416;SDS011;2731;50.754;12.990;2024-01-30T01:00:06;15.35;;;8.55;;
5416;SDS011;2731;50.754;12.990;2024-01-30T01:02:34;15.45;;;8.32;;
5416;SDS011;2731;50.754;12.990;2024-01-30T01:05:00;16.85;;;8.05;;
5416;SDS011;2731;50.754;12.990;2024-01-30T01:07:27;14.77;;;8.30;;
5416;SDS011;2731;50.754;12.990;2024-01-30T01:09:54;18.83;;;8.98;;
5416;SDS011;2731;50.754;12.990;2024-01-30T01:12:20;15.23;;;8.13;;
5416;SDS011;2731;50.754;12.990;2024-01-30T01:14:51;14.75;;;8.40;;
5416;SDS011;2731;50.754;12.990;2024-01-30T01:17:18;16.00;;;8.70;;
5416;SDS011;2731;50.754;12.990;2024-01-30T01:19:44;17.27;;;7.40;;
5416;SDS011;2731;50.754;12.990;2024-01-30T01:22:10;15.55;;;8.20;;
5416;SDS011;2731;50.754;12.990;2024-01-30T01:24:55;17.10;;;7.57;;
5416;SDS011;2731;50.754;12.990;2024-01-30T01:27:40;17.80;;;7.47;;
5416;SDS011;2731;50.754;12.990;2024-01-30T01:30:25;13.30;;;6.75;;
5416;SDS011;2731;50.754;12.990;2024-01-30T01:33:10;18.98;;;7.85;;
5416;SDS011;2731;50.754;12.990;2024-01-30T01:35:57;15.73;;;6.55;;
5416;SDS011;2731;50.754;12.990;2024-01-30T01:38:42;15.32;;;8.35;;
5416;SDS011;2731;50.754;12.990;2024-01-30T01:41:09;13.70;;;7.20;;
5416;SDS011;2731;50.754;12.990;2024-01-30T01:43:36;15.02;;;6.88;;
5416;SDS011;2731;50.754;12.990;2024-01-30T01:46:05;13.25;;;7.50;;
5416;SDS011;2731;50.754;12.990;2024-01-30T01:48:32;13.50;;;6.90;;
5416;SDS011;2731;50.754;12.990;2024-01-30T01:50:58;16.33;;;7.32;;
5416;SDS011;2731;50.754;12.990;2024-01-30T01:53:25;11.77;;;7.53;;
5416;SDS011;2731;50.754;12.990;2024-01-30T01:55:51;12.18;;;7.32;;
5416;SDS011;2731;50.754;12.990;2024-01-30T01:58:18;14.48;;;7.07;;
5416;SDS011;2731;50.754;12.990;2024-01-30T02:00:45;18.00;;;7.53;;
5416;SDS011;2731;50.754;12.990;2024-01-30T02:03:12;16.73;;;8.00;;
5416;SDS011;2731;50.754;12.990;2024-01-30T02:05:39;14.55;;;7.45;;
5416;SDS011;2731;50.754;12.990;2024-01-30T02:08:07;17.55;;;7.68;;
5416;SDS011;2731;50.754;12.990;2024-01-30T02:10:34;15.77;;;7.40;;
5416;SDS011;2731;50.754;12.990;2024-01-30T02:13:00;13.98;;;7.07;;
5416;SDS011;2731;50.754;12.990;2024-01-30T02:15:26;13.05;;;7.28;;
5416;SDS011;2731;50.754;12.990;2024-01-30T02:17:52;19.35;;;8.38;;
5416;SDS011;2731;50.754;12.990;2024-01-30T02:20:18;13.93;;;7.25;;
5416;SDS011;2731;50.754;12.990;2024-01-30T02:22:44;14.40;;;7.90;;
5416;SDS011;2731;50.754;12.990;2024-01-30T02:25:10;12.90;;;7.10;;
5416;SDS011;2731;50.754;12.990;2024-01-30T02:27:36;15.15;;;6.97;;
5416;SDS011;2731;50.754;12.990;2024-01-30T02:30:02;11.48;;;7.05;;
5416;SDS011;2731;50.754;12.990;2024-01-30T02:32:28;14.32;;;6.60;;
5416;SDS011;2731;50.754;12.990;2024-01-30T02:34:54;15.60;;;7.18;;
5416;SDS011;2731;50.754;12.990;2024-01-30T02:37:20;15.10;;;7.05;;
5416;SDS011;2731;50.754;12.990;2024-01-30T02:39:46;14.27;;;7.80;;
5416;SDS011;2731;50.754;12.990;2024-01-30T02:42:31;10.20;;;6.22;;
5416;SDS011;2731;50.754;12.990;2024-01-30T02:45:16;16.63;;;6.88;;
5416;SDS011;2731;50.754;12.990;2024-01-30T02:48:01;15.73;;;7.20;;
5416;SDS011;2731;50.754;12.990;2024-01-30T02:50:45;12.75;;;6.82;;
5416;SDS011;2731;50.754;12.990;2024-01-30T02:53:30;12.00;;;6.07;;
5416;SDS011;2731;50.754;12.990;2024-01-30T02:56:15;13.68;;;6.00;;
5416;SDS011;2731;50.754;12.990;2024-01-30T02:58:41;12.18;;;6.10;;
5416;SDS011;2731;50.754;12.990;2024-01-30T03:01:07;11.77;;;5.35;;
5416;SDS011;2731;50.754;12.990;2024-01-30T03:03:33;10.85;;;6.13;;
5416;SDS011;2731;50.754;12.990;2024-01-30T03:06:01;10.00;;;5.85;;
5416;SDS011;2731;50.754;12.990;2024-01-30T03:08:27;12.65;;;5.72;;
5416;SDS011;2731;50.754;12.990;2024-01-30T03:10:53;10.52;;;5.88;;
5416;SDS011;2731;50.754;12.990;2024-01-30T03:13:19;11.48;;;5.50;;
5416;SDS011;2731;50.754;12.990;2024-01-30T03:15:45;13.45;;;6.72;;
5416;SDS011;2731;50.754;12.990;2024-01-30T03:18:11;12.10;;;5.18;;
5416;SDS011;2731;50.754;12.990;2024-01-30T03:20:38;9.40;;;5.50;;
5416;SDS011;2731;50.754;12.990;2024-01-30T03:23:04;12.32;;;5.68;;
5416;SDS011;2731;50.754;12.990;2024-01-30T03:25:31;12.68;;;5.97;;
5416;SDS011;2731;50.754;12.990;2024-01-30T03:27:58;11.07;;;6.03;;
5416;SDS011;2731;50.754;12.990;2024-01-30T03:30:25;11.00;;;5.68;;
5416;SDS011;2731;50.754;12.990;2024-01-30T03:33:11;13.32;;;6.72;;
5416;SDS011;2731;50.754;12.990;2024-01-30T03:35:37;10.88;;;5.25;;
5416;SDS011;2731;50.754;12.990;2024-01-30T03:38:03;11.52;;;5.82;;
5416;SDS011;2731;50.754;12.990;2024-01-30T03:40:29;9.35;;;5.18;;
5416;SDS011;2731;50.754;12.990;2024-01-30T03:42:55;11.07;;;5.43;;
5416;SDS011;2731;50.754;12.990;2024-01-30T03:45:21;12.80;;;5.38;;
5416;SDS011;2731;50.754;12.990;2024-01-30T03:47:47;9.40;;;4.78;;
5416;SDS011;2731;50.754;12.990;2024-01-30T03:50:13;12.77;;;5.80;;
5416;SDS011;2731;50.754;12.990;2024-01-30T03:52:39;9.93;;;5.05;;
5416;SDS011;2731;50.754;12.990;2024-01-30T03:55:06;9.13;;;4.88;;
5416;SDS011;2731;50.754;12.990;2024-01-30T03:57:33;9.35;;;4.82;;
5416;SDS011;2731;50.754;12.990;2024-01-30T04:00:00;8.65;;;4.45;;
5416;SDS011;2731;50.754;12.990;2024-01-30T04:02:30;8.13;;;4.40;;
5416;SDS011;2731;50.754;12.990;2024-01-30T04:04:56;11.07;;;4.35;;
5416;SDS011;2731;50.754;12.990;2024-01-30T04:07:25;8.45;;;4.57;;
5416;SDS011;2731;50.754;12.990;2024-01-30T04:10:10;10.52;;;5.15;;
5416;SDS011;2731;50.754;12.990;2024-01-30T04:12:58;9.82;;;5.10;;
5416;SDS011;2731;50.754;12.990;2024-01-30T04:15:43;11.45;;;4.95;;
5416;SDS011;2731;50.754;12.990;2024-01-30T04:18:28;11.23;;;4.20;;
5416;SDS011;2731;50.754;12.990;2024-01-30T04:21:13;10.98;;;5.10;;
5416;SDS011;2731;50.754;12.990;2024-01-30T04:23:40;8.77;;;3.78;;
5416;SDS011;2731;50.754;12.990;2024-01-30T04:26:25;7.65;;;4.25;;
5416;SDS011;2731;50.754;12.990;2024-01-30T04:29:15;8.30;;;4.22;;
5416;SDS011;2731;50.754;12.990;2024-01-30T04:32:00;7.43;;;4.18;;
5416;SDS011;2731;50.754;12.990;2024-01-30T04:34:26;9.82;;;4.10;;
5416;SDS011;2731;50.754;12.990;2024-01-30T04:36:52;13.60;;;5.00;;
5416;SDS011;2731;50.754;12.990;2024-01-30T04:39:18;9.18;;;4.80;;
5416;SDS011;2731;50.754;12.990;2024-01-30T04:41:44;8.80;;;4.97;;
5416;SDS011;2731;50.754;12.990;2024-01-30T04:44:10;8.43;;;4.45;;
5416;SDS011;2731;50.754;12.990;2024-01-30T04:46:36;9.10;;;4.45;;
5416;SDS011;2731;50.754;12.990;2024-01-30T04:49:02;11.00;;;5.25;;
5416;SDS011;2731;50.754;12.990;2024-01-30T04:51:28;11.18;;;4.82;;
5416;SDS011;2731;50.754;12.990;2024-01-30T04:53:55;7.05;;;4.28;;
5416;SDS011;2731;50.754;12.990;2024-01-30T04:56:22;8.40;;;4.38;;
5416;SDS011;2731;50.754;12.990;2024-01-30T04:58:49;9.85;;;4.75;;
5416;SDS011;2731;50.754;12.990;2024-01-30T05:01:16;8.18;;;4.60;;
5416;SDS011;2731;50.754;12.990;2024-01-30T05:03:43;10.93;;;5.03;;
5416;SDS011;2731;50.754;12.990;2024-01-30T05:06:09;9.93;;;4.88;;
5416;SDS011;2731;50.754;12.990;2024-01-30T05:08:35;7.28;;;4.38;;
5416;SDS011;2731;50.754;12.990;2024-01-30T05:11:05;7.75;;;3.70;;
5416;SDS011;2731;50.754;12.990;2024-01-30T05:13:31;8.77;;;4.85;;
5416;SDS011;2731;50.754;12.990;2024-01-30T05:15:57;9.38;;;4.32;;
5416;SDS011;2731;50.754;12.990;2024-01-30T05:18:23;8.82;;;4.28;;
5416;SDS011;2731;50.754;12.990;2024-01-30T05:20:50;9.25;;;4.15;;
5416;SDS011;2731;50.754;12.990;2024-01-30T05:23:16;10.73;;;4.53;;
5416;SDS011;2731;50.754;12.990;2024-01-30T05:25:48;10.13;;;4.13;;
5416;SDS011;2731;50.754;12.990;2024-01-30T05:28:15;7.28;;;3.83;;
5416;SDS011;2731;50.754;12.990;2024-01-30T05:30:42;7.93;;;3.83;;
5416;SDS011;2731;50.754;12.990;2024-01-30T05:33:09;6.90;;;4.07;;
5416;SDS011;2731;50.754;12.990;2024-01-30T05:35:37;10.10;;;4.95;;
5416;SDS011;2731;50.754;12.990;2024-01-30T05:38:03;7.28;;;3.83;;
5416;SDS011;2731;50.754;12.990;2024-01-30T05:40:29;7.50;;;4.10;;
5416;SDS011;2731;50.754;12.990;2024-01-30T05:42:56;6.38;;;4.05;;
5416;SDS011;2731;50.754;12.990;2024-01-30T05:45:25;8.45;;;4.75;;
5416;SDS011;2731;50.754;12.990;2024-01-30T05:47:52;6.20;;;3.88;;
5416;SDS011;2731;50.754;12.990;2024-01-30T05:50:18;11.07;;;3.75;;
5416;SDS011;2731;50.754;12.990;2024-01-30T05:52:45;6.85;;;3.70;;
5416;SDS011;2731;50.754;12.990;2024-01-30T05:55:12;5.78;;;3.65;;
5416;SDS011;2731;50.754;12.990;2024-01-30T05:57:41;9.85;;;3.75;;
5416;SDS011;2731;50.754;12.990;2024-01-30T06:00:09;8.32;;;4.35;;
5416;SDS011;2731;50.754;12.990;2024-01-30T06:02:36;9.32;;;3.90;;
5416;SDS011;2731;50.754;12.990;2024-01-30T06:05:02;7.93;;;4.03;;
5416;SDS011;2731;50.754;12.990;2024-01-30T06:07:28;5.57;;;3.58;;
5416;SDS011;2731;50.754;12.990;2024-01-30T06:10:13;10.75;;;4.65;;
5416;SDS011;2731;50.754;12.990;2024-01-30T06:12:58;5.30;;;3.53;;
5416;SDS011;2731;50.754;12.990;2024-01-30T06:15:42;9.55;;;4.95;;
5416;SDS011;2731;50.754;12.990;2024-01-30T06:18:27;11.93;;;5.55;;
5416;SDS011;2731;50.754;12.990;2024-01-30T06:21:14;7.97;;;3.90;;
5416;SDS011;2731;50.754;12.990;2024-01-30T06:24:02;7.88;;;4.53;;
5416;SDS011;2731;50.754;12.990;2024-01-30T06:26:48;13.10;;;4.43;;
5416;SDS011;2731;50.754;12.990;2024-01-30T06:29:15;6.55;;;3.60;;
5416;SDS011;2731;50.754;12.990;2024-01-30T06:32:04;7.75;;;4.05;;
5416;SDS011;2731;50.754;12.990;2024-01-30T06:34:49;9.38;;;5.20;;
5416;SDS011;2731;50.754;12.990;2024-01-30T06:37:15;8.63;;;4.40;;
5416;SDS011;2731;50.754;12.990;2024-01-30T06:39:41;7.70;;;4.47;;
5416;SDS011;2731;50.754;12.990;2024-01-30T06:42:07;8.90;;;4.75;;
5416;SDS011;2731;50.754;12.990;2024-01-30T06:44:33;8.82;;;4.50;;
5416;SDS011;2731;50.754;12.990;2024-01-30T06:46:59;9.30;;;4.32;;
5416;SDS011;2731;50.754;12.990;2024-01-30T06:49:25;6.78;;;3.95;;
5416;SDS011;2731;50.754;12.990;2024-01-30T06:51:51;7.57;;;4.47;;
5416;SDS011;2731;50.754;12.990;2024-01-30T06:54:17;8.23;;;4.50;;
5416;SDS011;2731;50.754;12.990;2024-01-30T06:56:47;7.80;;;4.68;;
5416;SDS011;2731;50.754;12.990;2024-01-30T06:59:14;13.32;;;5.05;;
5416;SDS011;2731;50.754;12.990;2024-01-30T07:01:41;11.00;;;4.10;;
5416;SDS011;2731;50.754;12.990;2024-01-30T07:04:07;9.80;;;4.95;;
5416;SDS011;2731;50.754;12.990;2024-01-30T07:06:33;9.35;;;4.65;;
5416;SDS011;2731;50.754;12.990;2024-01-30T07:08:59;9.32;;;4.20;;
5416;SDS011;2731;50.754;12.990;2024-01-30T07:11:25;8.23;;;4.47;;
5416;SDS011;2731;50.754;12.990;2024-01-30T07:13:52;11.68;;;4.97;;
5416;SDS011;2731;50.754;12.990;2024-01-30T07:16:18;8.93;;;4.90;;
5416;SDS011;2731;50.754;12.990;2024-01-30T07:18:44;11.82;;;5.45;;
5416;SDS011;2731;50.754;12.990;2024-01-30T07:21:12;10.32;;;4.53;;
5416;SDS011;2731;50.754;12.990;2024-01-30T07:23:38;9.15;;;4.97;;
5416;SDS011;2731;50.754;12.990;2024-01-30T07:26:04;12.07;;;6.03;;
5416;SDS011;2731;50.754;12.990;2024-01-30T07:28:35;9.77;;;5.38;;
5416;SDS011;2731;50.754;12.990;2024-01-30T07:31:02;11.30;;;6.72;;
5416;SDS011;2731;50.754;12.990;2024-01-30T07:33:29;10.30;;;5.57;;
5416;SDS011;2731;50.754;12.990;2024-01-30T07:35:55;12.48;;;5.55;;
5416;SDS011;2731;50.754;12.990;2024-01-30T07:38:21;8.35;;;4.60;;
5416;SDS011;2731;50.754;12.990;2024-01-30T07:41:06;9.55;;;5.32;;
5416;SDS011;2731;50.754;12.990;2024-01-30T07:43:52;9.35;;;5.30;;
5416;SDS011;2731;50.754;12.990;2024-01-30T07:46:37;10.13;;;6.00;;
5416;SDS011;2731;50.754;12.990;2024-01-30T07:49:22;11.68;;;5.45;;
5416;SDS011;2731;50.754;12.990;2024-01-30T07:52:06;11.55;;;5.95;;
5416;SDS011;2731;50.754;12.990;2024-01-30T07:54:32;13.25;;;6.30;;
5416;SDS011;2731;50.754;12.990;2024-01-30T07:57:18;13.55;;;6.57;;
5416;SDS011;2731;50.754;12.990;2024-01-30T08:00:03;12.18;;;7.05;;
5416;SDS011;2731;50.754;12.990;2024-01-30T08:02:49;16.05;;;7.57;;
5416;SDS011;2731;50.754;12.990;2024-01-30T08:05:15;11.93;;;6.28;;
5416;SDS011;2731;50.754;12.990;2024-01-30T08:08:00;12.05;;;6.63;;
5416;SDS011;2731;50.754;12.990;2024-01-30T08:10:26;15.48;;;7.82;;
5416;SDS011;2731;50.754;12.990;2024-01-30T08:12:52;12.65;;;6.60;;
5416;SDS011;2731;50.754;12.990;2024-01-30T08:15:37;16.63;;;6.90;;
5416;SDS011;2731;50.754;12.990;2024-01-30T08:18:21;13.77;;;7.15;;
5416;SDS011;2731;50.754;12.990;2024-01-30T08:21:06;17.25;;;8.80;;
5416;SDS011;2731;50.754;12.990;2024-01-30T08:23:51;13.85;;;6.60;;
5416;SDS011;2731;50.754;12.990;2024-01-30T08:26:36;11.73;;;6.47;;
5416;SDS011;2731;50.754;12.990;2024-01-30T08:29:21;12.90;;;6.70;;
5416;SDS011;2731;50.754;12.990;2024-01-30T08:31:47;11.85;;;6.60;;
5416;SDS011;2731;50.754;12.990;2024-01-30T08:34:13;12.20;;;7.22;;
5416;SDS011;2731;50.754;12.990;2024-01-30T08:36:58;10.85;;;6.70;;
5416;SDS011;2731;50.754;12.990;2024-01-30T08:39:43;10.48;;;6.35;;
5416;SDS011;2731;50.754;12.990;2024-01-30T08:42:28;12.23;;;5.75;;
5416;SDS011;2731;50.754;12.990;2024-01-30T08:45:12;10.48;;;5.50;;
5416;SDS011;2731;50.754;12.990;2024-01-30T08:47:57;8.23;;;4.75;;
5416;SDS011;2731;50.754;12.990;2024-01-30T08:50:29;10.00;;;6.05;;
5416;SDS011;2731;50.754;12.990;2024-01-30T08:53:14;11.80;;;6.53;;
5416;SDS011;2731;50.754;12.990;2024-01-30T08:55:58;13.00;;;5.63;;
5416;SDS011;2731;50.754;12.990;2024-01-30T08:58:43;9.13;;;4.85;;
5416;SDS011;2731;50.754;12.990;2024-01-30T09:01:28;8.63;;;4.95;;
5416;SDS011;2731;50.754;12.990;2024-01-30T09:04:13;11.60;;;4.60;;
5416;SDS011;2731;50.754;12.990;2024-01-30T09:06:39;12.65;;;6.28;;
5416;SDS011;2731;50.754;12.990;2024-01-30T09:09:23;10.25;;;6.10;;
5416;SDS011;2731;50.754;12.990;2024-01-30T09:12:08;9.75;;;5.00;;
5416;SDS011;2731;50.754;12.990;2024-01-30T09:14:55;11.35;;;5.75;;
5416;SDS011;2731;50.754;12.990;2024-01-30T09:17:39;9.60;;;5.82;;
5416;SDS011;2731;50.754;12.990;2024-01-30T09:20:24;9.27;;;5.82;;
5416;SDS011;2731;50.754;12.990;2024-01-30T09:22:50;13.70;;;6.55;;
5416;SDS011;2731;50.754;12.990;2024-01-30T09:25:35;12.48;;;6.53;;
5416;SDS011;2731;50.754;12.990;2024-01-30T09:28:20;13.13;;;5.75;;
5416;SDS011;2731;50.754;12.990;2024-01-30T09:31:09;12.52;;;6.10;;
5416;SDS011;2731;50.754;12.990;2024-01-30T09:33:54;12.32;;;6.32;;
5416;SDS011;2731;50.754;12.990;2024-01-30T09:36:40;8.43;;;5.50;;
5416;SDS011;2731;50.754;12.990;2024-01-30T09:39:26;12.60;;;5.75;;
5416;SDS011;2731;50.754;12.990;2024-01-30T09:42:00;13.90;;;6.47;;
5416;SDS011;2731;50.754;12.990;2024-01-30T09:44:28;13.75;;;7.55;;
5416;SDS011;2731;50.754;12.990;2024-01-30T09:46:56;12.13;;;5.68;;
5416;SDS011;2731;50.754;12.990;2024-01-30T09:49:34;9.27;;;5.72;;
5416;SDS011;2731;50.754;12.990;2024-01-30T09:52:02;10.70;;;5.68;;
5416;SDS011;2731;50.754;12.990;2024-01-30T09:54:29;12.40;;;6.10;;
5416;SDS011;2731;50.754;12.990;2024-01-30T09:56:56;13.00;;;6.97;;
5416;SDS011;2731;50.754;12.990;2024-01-30T09:59:22;9.80;;;5.47;;
5416;SDS011;2731;50.754;12.990;2024-01-30T10:01:53;12.45;;;5.57;;
5416;SDS011;2731;50.754;12.990;2024-01-30T10:04:19;9.32;;;5.43;;
5416;SDS011;2731;50.754;12.990;2024-01-30T10:06:49;11.48;;;6.00;;
5416;SDS011;2731;50.754;12.990;2024-01-30T10:09:17;9.63;;;4.93;;
5416;SDS011;2731;50.754;12.990;2024-01-30T10:11:44;9.63;;;5.65;;
5416;SDS011;2731;50.754;12.990;2024-01-30T10:14:11;9.00;;;4.90;;
5416;SDS011;2731;50.754;12.990;2024-01-30T10:16:57;7.35;;;5.00;;
5416;SDS011;2731;50.754;12.990;2024-01-30T10:19:42;10.55;;;4.72;;
5416;SDS011;2731;50.754;12.990;2024-01-30T10:22:26;8.20;;;4.50;;
5416;SDS011;2731;50.754;12.990;2024-01-30T10:25:11;12.95;;;5.50;;
5416;SDS011;2731;50.754;12.990;2024-01-30T10:27:56;8.85;;;4.38;;
5416;SDS011;2731;50.754;12.990;2024-01-30T10:30:23;8.93;;;5.75;;
5416;SDS011;2731;50.754;12.990;2024-01-30T10:33:08;8.38;;;4.60;;
5416;SDS011;2731;50.754;12.990;2024-01-30T10:35:54;9.65;;;4.97;;
5416;SDS011;2731;50.754;12.990;2024-01-30T10:38:41;7.28;;;4.53;;
5416;SDS011;2731;50.754;12.990;2024-01-30T10:41:26;8.82;;;4.55;;
5416;SDS011;2731;50.754;12.990;2024-01-30T10:44:11;6.82;;;3.75;;
5416;SDS011;2731;50.754;12.990;2024-01-30T10:46:41;10.38;;;4.32;;
5416;SDS011;2731;50.754;12.990;2024-01-30T10:49:27;6.43;;;3.53;;
5416;SDS011;2731;50.754;12.990;2024-01-30T10:52:12;5.82;;;3.63;;
5416;SDS011;2731;50.754;12.990;2024-01-30T10:54:40;8.93;;;3.72;;
5416;SDS011;2731;50.754;12.990;2024-01-30T10:57:06;5.32;;;3.60;;
5416;SDS011;2731;50.754;12.990;2024-01-30T10:59:33;11.30;;;3.88;;
5416;SDS011;2731;50.754;12.990;2024-01-30T11:02:00;9.68;;;3.78;;
5416;SDS011;2731;50.754;12.990;2024-01-30T11:04:26;5.68;;;3.55;;
5416;SDS011;2731;50.754;12.990;2024-01-30T11:06:52;7.35;;;4.13;;
5416;SDS011;2731;50.754;12.990;2024-01-30T11:09:19;8.20;;;4.30;;
5416;SDS011;2731;50.754;12.990;2024-01-30T11:11:55;7.30;;;3.90;;
5416;SDS011;2731;50.754;12.990;2024-01-30T11:14:30;8.63;;;4.93;;
5416;SDS011;2731;50.754;12.990;2024-01-30T11:17:00;8.95;;;4.68;;
5416;SDS011;2731;50.754;12.990;2024-01-30T11:19:26;9.90;;;5.00;;
5416;SDS011;2731;50.754;12.990;2024-01-30T11:21:52;6.95;;;4.13;;
5416;SDS011;2731;50.754;12.990;2024-01-30T11:24:22;8.38;;;4.47;;
5416;SDS011;2731;50.754;12.990;2024-01-30T11:26:55;8.23;;;4.53;;
5416;SDS011;2731;50.754;12.990;2024-01-30T11:29:27;6.10;;;3.75;;
5416;SDS011;2731;50.754;12.990;2024-01-30T11:31:53;10.38;;;3.50;;
5416;SDS011;2731;50.754;12.990;2024-01-30T11:34:20;8.05;;;3.80;;
5416;SDS011;2731;50.754;12.990;2024-01-30T11:36:48;6.20;;;3.65;;
5416;SDS011;2731;50.754;12.990;2024-01-30T11:39:18;4.53;;;3.00;;
5416;SDS011;2731;50.754;12.990;2024-01-30T11:41:47;6.35;;;2.95;;
5416;SDS011;2731;50.754;12.990;2024-01-30T11:44:13;4.10;;;2.38;;
5416;SDS011;2731;50.754;12.990;2024-01-30T11:46:40;6.18;;;3.03;;
5416;SDS011;2731;50.754;12.990;2024-01-30T11:49:09;5.82;;;3.05;;
5416;SDS011;2731;50.754;12.990;2024-01-30T11:51:35;6.25;;;3.03;;
5416;SDS011;2731;50.754;12.990;2024-01-30T11:54:01;4.05;;;2.85;;
5416;SDS011;2731;50.754;12.990;2024-01-30T11:56:28;5.40;;;2.70;;
5416;SDS011;2731;50.754;12.990;2024-01-30T11:58:54;5.43;;;3.42;;
5416;SDS011;2731;50.754;12.990;2024-01-30T12:01:20;9.00;;;2.90;;
5416;SDS011;2731;50.754;12.990;2024-01-30T12:03:50;4.25;;;2.50;;
5416;SDS011;2731;50.754;12.990;2024-01-30T12:06:16;4.43;;;2.92;;
5416;SDS011;2731;50.754;12.990;2024-01-30T12:08:42;4.43;;;2.53;;
5416;SDS011;2731;50.754;12.990;2024-01-30T12:11:09;4.18;;;2.60;;
5416;SDS011;2731;50.754;12.990;2024-01-30T12:13:35;5.15;;;2.50;;
5416;SDS011;2731;50.754;12.990;2024-01-30T12:16:01;3.50;;;2.35;;
5416;SDS011;2731;50.754;12.990;2024-01-30T12:18:27;4.03;;;2.33;;
5416;SDS011;2731;50.754;12.990;2024-01-30T12:21:00;4.53;;;2.75;;
5416;SDS011;2731;50.754;12.990;2024-01-30T12:25:52;7.15;;;2.83;;
5416;SDS011;2731;50.754;12.990;2024-01-30T12:28:19;4.28;;;2.05;;
5416;SDS011;2731;50.754;12.990;2024-01-30T12:30:45;5.90;;;2.75;;
5416;SDS011;2731;50.754;12.990;2024-01-30T12:33:15;4.03;;;2.47;;
5416;SDS011;2731;50.754;12.990;2024-01-30T12:35:45;5.03;;;2.20;;
5416;SDS011;2731;50.754;12.990;2024-01-30T12:38:12;5.82;;;2.58;;
5416;SDS011;2731;50.754;12.990;2024-01-30T12:40:38;3.92;;;2.35;;
5416;SDS011;2731;50.754;12.990;2024-01-30T12:43:04;2.92;;;2.20;;
5416;SDS011;2731;50.754;12.990;2024-01-30T12:45:30;5.22;;;2.35;;
5416;SDS011;2731;50.754;12.990;2024-01-30T12:47:56;3.20;;;2.28;;
5416;SDS011;2731;50.754;12.990;2024-01-30T12:50:23;4.93;;;2.50;;
5416;SDS011;2731;50.754;12.990;2024-01-30T12:52:49;4.53;;;2.13;;
5416;SDS011;2731;50.754;12.990;2024-01-30T12:55:15;3.63;;;2.10;;
5416;SDS011;2731;50.754;12.990;2024-01-30T12:57:44;4.47;;;2.10;;
5416;SDS011;2731;50.754;12.990;2024-01-30T13:00:11;6.07;;;2.67;;
5416;SDS011;2731;50.754;12.990;2024-01-30T13:02:37;4.15;;;2.45;;
5416;SDS011;2731;50.754;12.990;2024-01-30T13:05:03;6.72;;;2.60;;
5416;SDS011;2731;50.754;12.990;2024-01-30T13:07:29;9.55;;;2.97;;
5416;SDS011;2731;50.754;12.990;2024-01-30T13:09:56;4.07;;;2.33;;
5416;SDS011;2731;50.754;12.990;2024-01-30T13:12:28;4.15;;;2.35;;
5416;SDS011;2731;50.754;12.990;2024-01-30T13:14:54;4.82;;;2.90;;
5416;SDS011;2731;50.754;12.990;2024-01-30T13:17:20;4.75;;;2.45;;
5416;SDS011;2731;50.754;12.990;2024-01-30T13:19:46;5.00;;;3.35;;
5416;SDS011;2731;50.754;12.990;2024-01-30T13:22:15;5.50;;;2.75;;
5416;SDS011;2731;50.754;12.990;2024-01-30T13:24:41;3.83;;;2.83;;
5416;SDS011;2731;50.754;12.990;2024-01-30T13:27:07;3.67;;;2.92;;
5416;SDS011;2731;50.754;12.990;2024-01-30T13:29:33;4.35;;;2.30;;
5416;SDS011;2731;50.754;12.990;2024-01-30T13:31:59;4.13;;;2.58;;
5416;SDS011;2731;50.754;12.990;2024-01-30T13:34:26;4.90;;;2.58;;
5416;SDS011;2731;50.754;12.990;2024-01-30T13:36:52;4.57;;;2.30;;
5416;SDS011;2731;50.754;12.990;2024-01-30T13:39:18;4.97;;;2.83;;
5416;SDS011;2731;50.754;12.990;2024-01-30T13:41:44;3.38;;;2.25;;
5416;SDS011;2731;50.754;12.990;2024-01-30T13:44:10;3.95;;;2.33;;
5416;SDS011;2731;50.754;12.990;2024-01-30T13:46:36;3.97;;;2.50;;
5416;SDS011;2731;50.754;12.990;2024-01-30T13:49:04;4.43;;;2.17;;
5416;SDS011;2731;50.754;12.990;2024-01-30T13:51:30;6.15;;;2.55;;
5416;SDS011;2731;50.754;12.990;2024-01-30T13:53:56;6.38;;;2.85;;
5416;SDS011;2731;50.754;12.990;2024-01-30T13:56:22;4.13;;;2.67;;
5416;SDS011;2731;50.754;12.990;2024-01-30T13:58:48;5.88;;;2.65;;
5416;SDS011;2731;50.754;12.990;2024-01-30T14:01:15;5.45;;;2.90;;
5416;SDS011;2731;50.754;12.990;2024-01-30T14:03:41;6.20;;;2.88;;
5416;SDS011;2731;50.754;12.990;2024-01-30T14:06:07;4.00;;;2.53;;
5416;SDS011;2731;50.754;12.990;2024-01-30T14:08:33;3.75;;;2.50;;
5416;SDS011;2731;50.754;12.990;2024-01-30T14:10:59;4.20;;;2.55;;
5416;SDS011;2731;50.754;12.990;2024-01-30T14:13:25;5.35;;;2.72;;
5416;SDS011;2731;50.754;12.990;2024-01-30T14:15:52;8.45;;;2.83;;
5416;SDS011;2731;50.754;12.990;2024-01-30T14:18:18;5.28;;;2.60;;
5416;SDS011;2731;50.754;12.990;2024-01-30T14:20:44;2.78;;;2.03;;
5416;SDS011;2731;50.754;12.990;2024-01-30T14:23:10;5.25;;;2.75;;
5416;SDS011;2731;50.754;12.990;2024-01-30T14:25:36;6.57;;;2.95;;
5416;SDS011;2731;50.754;12.990;2024-01-30T14:28:02;4.50;;;2.72;;
5416;SDS011;2731;50.754;12.990;2024-01-30T14:30:29;6.82;;;2.67;;
5416;SDS011;2731;50.754;12.990;2024-01-30T14:32:55;6.65;;;3.63;;
5416;SDS011;2731;50.754;12.990;2024-01-30T14:35:21;6.80;;;3.13;;
5416;SDS011;2731;50.754;12.990;2024-01-30T14:37:47;5.63;;;3.03;;
5416;SDS011;2731;50.754;12.990;2024-01-30T14:40:14;5.75;;;2.92;;
5416;SDS011;2731;50.754;12.990;2024-01-30T14:42:40;4.93;;;2.97;;
5416;SDS011;2731;50.754;12.990;2024-01-30T14:45:06;5.35;;;2.97;;
5416;SDS011;2731;50.754;12.990;2024-01-30T14:47:33;7.80;;;3.05;;
5416;SDS011;2731;50.754;12.990;2024-01-30T14:50:00;3.40;;;2.22;;
5416;SDS011;2731;50.754;12.990;2024-01-30T14:52:26;3.65;;;2.47;;
5416;SDS011;2731;50.754;12.990;2024-01-30T14:54:52;7.90;;;3.00;;
5416;SDS011;2731;50.754;12.990;2024-01-30T14:57:18;5.60;;;2.80;;
5416;SDS011;2731;50.754;12.990;2024-01-30T14:59:45;5.30;;;2.67;;
5416;SDS011;2731;50.754;12.990;2024-01-30T15:02:11;8.00;;;2.72;;
5416;SDS011;2731;50.754;12.990;2024-01-30T15:04:37;5.50;;;3.17;;
5416;SDS011;2731;50.754;12.990;2024-01-30T15:07:03;5.15;;;2.83;;
5416;SDS011;2731;50.754;12.990;2024-01-30T15:09:29;4.57;;;2.67;;
5416;SDS011;2731;50.754;12.990;2024-01-30T15:11:55;3.95;;;2.28;;
5416;SDS011;2731;50.754;12.990;2024-01-30T15:14:22;8.02;;;2.50;;
5416;SDS011;2731;50.754;12.990;2024-01-30T15:16:49;5.28;;;3.10;;
5416;SDS011;2731;50.754;12.990;2024-01-30T15:19:15;5.95;;;3.20;;